Terminal Aerodrome Forecast
Issued by NWS

Home | Current Version | Previous Version | Text Only | Print | Product List | Glossary On
Versions: 1 2 3 4 5 6 7 8 9 10 11 12 13 14 15 16 17 18 19 20 21 22 23 24 25
000
FTUS45 KGJT 011914 AAA
TAFTEX
TAF AMD
KTEX 011914Z 0119/0218 27010G18KT P6SM FEW080 BKN200
     FM012100 29008KT P6SM VCTS SCT080CB BKN150
      TEMPO 0122/0202 VRB15G25KT -TSRA SCT070 BKN090CB
     FM020300 13004KT P6SM VCTS SCT080CB BKN150
     FM020600 12004KT P6SM FEW080 BKN200=

USA.gov is the U.S. government's official web portal to all federal, state and local government web resources and services.